sensor_id;sensor_type;location;lat;lon;timestamp;temperature;humidity
78886;DHT22;68269;52.514;5.722;2024-01-06T00:02:15;6.60;74.40
78886;DHT22;68269;52.514;5.722;2024-01-06T00:04:47;6.60;74.50
78886;DHT22;68269;52.514;5.722;2024-01-06T00:07:16;6.60;74.40
78886;DHT22;68269;52.514;5.722;2024-01-06T00:09:45;6.60;74.50
78886;DHT22;68269;52.514;5.722;2024-01-06T00:12:15;6.60;74.40
78886;DHT22;68269;52.514;5.722;2024-01-06T00:14:44;6.60;74.40
78886;DHT22;68269;52.514;5.722;2024-01-06T00:17:16;6.60;74.40
78886;DHT22;68269;52.514;5.722;2024-01-06T00:19:48;6.60;74.50
78886;DHT22;68269;52.514;5.722;2024-01-06T00:22:18;6.50;74.40
78886;DHT22;68269;52.514;5.722;2024-01-06T00:24:47;6.50;74.40
78886;DHT22;68269;52.514;5.722;2024-01-06T00:27:16;6.50;74.40
78886;DHT22;68269;52.514;5.722;2024-01-06T00:29:45;6.50;74.50
78886;DHT22;68269;52.514;5.722;2024-01-06T00:32:15;6.50;74.40
78886;DHT22;68269;52.514;5.722;2024-01-06T00:34:44;6.40;74.40
78886;DHT22;68269;52.514;5.722;2024-01-06T00:37:16;6.40;74.40
78886;DHT22;68269;52.514;5.722;2024-01-06T00:39:45;6.40;74.50
78886;DHT22;68269;52.514;5.722;2024-01-06T00:42:14;6.40;74.40
78886;DHT22;68269;52.514;5.722;2024-01-06T00:44:44;6.30;74.40
78886;DHT22;68269;52.514;5.722;2024-01-06T00:47:14;6.30;74.40
78886;DHT22;68269;52.514;5.722;2024-01-06T00:49:43;6.30;74.50
78886;DHT22;68269;52.514;5.722;2024-01-06T00:52:12;6.20;74.60
78886;DHT22;68269;52.514;5.722;2024-01-06T00:54:44;6.30;74.50
78886;DHT22;68269;52.514;5.722;2024-01-06T00:57:13;6.30;74.50
78886;DHT22;68269;52.514;5.722;2024-01-06T00:59:43;6.30;74.40
78886;DHT22;68269;52.514;5.722;2024-01-06T01:02:12;6.30;74.40
78886;DHT22;68269;52.514;5.722;2024-01-06T01:04:41;6.30;74.40
78886;DHT22;68269;52.514;5.722;2024-01-06T01:07:12;6.30;74.40
78886;DHT22;68269;52.514;5.722;2024-01-06T01:09:44;6.20;74.40
78886;DHT22;68269;52.514;5.722;2024-01-06T01:12:14;6.30;74.30
78886;DHT22;68269;52.514;5.722;2024-01-06T01:14:43;6.30;74.30
78886;DHT22;68269;52.514;5.722;2024-01-06T01:17:12;6.20;74.30
78886;DHT22;68269;52.514;5.722;2024-01-06T01:19:42;6.20;74.30
78886;DHT22;68269;52.514;5.722;2024-01-06T01:22:11;6.20;74.30
78886;DHT22;68269;52.514;5.722;2024-01-06T01:24:44;6.20;74.30
78886;DHT22;68269;52.514;5.722;2024-01-06T01:27:13;6.20;74.30
78886;DHT22;68269;52.514;5.722;2024-01-06T01:29:42;6.20;74.30
78886;DHT22;68269;52.514;5.722;2024-01-06T01:32:12;6.20;74.30
78886;DHT22;68269;52.514;5.722;2024-01-06T01:34:41;6.20;74.20
78886;DHT22;68269;52.514;5.722;2024-01-06T01:37:10;6.20;74.30
78886;DHT22;68269;52.514;5.722;2024-01-06T01:39:40;6.20;74.30
78886;DHT22;68269;52.514;5.722;2024-01-06T01:42:12;6.20;74.20
78886;DHT22;68269;52.514;5.722;2024-01-06T01:44:41;6.20;74.20
78886;DHT22;68269;52.514;5.722;2024-01-06T01:47:11;6.10;74.30
78886;DHT22;68269;52.514;5.722;2024-01-06T01:49:45;6.10;74.20
78886;DHT22;68269;52.514;5.722;2024-01-06T01:52:15;6.10;74.30
78886;DHT22;68269;52.514;5.722;2024-01-06T01:54:45;6.10;74.20
78886;DHT22;68269;52.514;5.722;2024-01-06T01:57:18;6.10;74.30
78886;DHT22;68269;52.514;5.722;2024-01-06T01:59:47;6.00;74.20
78886;DHT22;68269;52.514;5.722;2024-01-06T02:02:17;6.10;74.20
78886;DHT22;68269;52.514;5.722;2024-01-06T02:04:47;6.10;74.20
78886;DHT22;68269;52.514;5.722;2024-01-06T02:07:16;6.10;74.20
78886;DHT22;68269;52.514;5.722;2024-01-06T02:09:46;6.00;74.20
78886;DHT22;68269;52.514;5.722;2024-01-06T02:12:17;6.00;74.10
78886;DHT22;68269;52.514;5.722;2024-01-06T02:14:47;6.00;74.20
78886;DHT22;68269;52.514;5.722;2024-01-06T02:17:16;6.00;74.20
78886;DHT22;68269;52.514;5.722;2024-01-06T02:19:45;6.00;74.10
78886;DHT22;68269;52.514;5.722;2024-01-06T02:22:18;6.00;74.10
78886;DHT22;68269;52.514;5.722;2024-01-06T02:24:47;6.00;74.10
78886;DHT22;68269;52.514;5.722;2024-01-06T02:27:16;6.00;74.10
78886;DHT22;68269;52.514;5.722;2024-01-06T02:29:46;6.00;74.20
78886;DHT22;68269;52.514;5.722;2024-01-06T02:32:15;5.90;74.20
78886;DHT22;68269;52.514;5.722;2024-01-06T02:34:44;5.90;74.20
78886;DHT22;68269;52.514;5.722;2024-01-06T02:37:13;5.90;74.20
78886;DHT22;68269;52.514;5.722;2024-01-06T02:39:45;5.90;74.10
78886;DHT22;68269;52.514;5.722;2024-01-06T02:42:14;5.90;74.10
78886;DHT22;68269;52.514;5.722;2024-01-06T02:44:44;5.90;74.10
78886;DHT22;68269;52.514;5.722;2024-01-06T02:47:13;5.90;74.10
78886;DHT22;68269;52.514;5.722;2024-01-06T02:49:42;5.90;74.10
78886;DHT22;68269;52.514;5.722;2024-01-06T02:52:11;5.80;74.10
78886;DHT22;68269;52.514;5.722;2024-01-06T02:54:41;5.80;74.10
78886;DHT22;68269;52.514;5.722;2024-01-06T02:57:12;5.80;74.10
78886;DHT22;68269;52.514;5.722;2024-01-06T02:59:42;5.80;74.10
78886;DHT22;68269;52.514;5.722;2024-01-06T03:02:11;5.80;74.10
78886;DHT22;68269;52.514;5.722;2024-01-06T03:04:40;5.70;74.00
78886;DHT22;68269;52.514;5.722;2024-01-06T03:07:10;5.70;74.10
78886;DHT22;68269;52.514;5.722;2024-01-06T03:09:39;5.70;74.00
78886;DHT22;68269;52.514;5.722;2024-01-06T03:12:09;5.70;74.00
78886;DHT22;68269;52.514;5.722;2024-01-06T03:14:40;5.70;74.00
78886;DHT22;68269;52.514;5.722;2024-01-06T03:17:10;5.70;73.90
78886;DHT22;68269;52.514;5.722;2024-01-06T03:19:39;5.70;74.00
78886;DHT22;68269;52.514;5.722;2024-01-06T03:22:08;5.70;74.00
78886;DHT22;68269;52.514;5.722;2024-01-06T03:24:37;5.60;74.00
78886;DHT22;68269;52.514;5.722;2024-01-06T03:27:08;5.60;73.90
78886;DHT22;68269;52.514;5.722;2024-01-06T03:29:41;5.60;73.90
78886;DHT22;68269;52.514;5.722;2024-01-06T03:32:10;5.60;73.90
78886;DHT22;68269;52.514;5.722;2024-01-06T03:34:41;5.60;73.90
78886;DHT22;68269;52.514;5.722;2024-01-06T03:37:10;5.60;73.90
78886;DHT22;68269;52.514;5.722;2024-01-06T03:39:39;5.60;73.90
78886;DHT22;68269;52.514;5.722;2024-01-06T03:42:09;5.60;73.80
78886;DHT22;68269;52.514;5.722;2024-01-06T03:44:40;5.50;73.80
78886;DHT22;68269;52.514;5.722;2024-01-06T03:47:10;5.50;73.80
78886;DHT22;68269;52.514;5.722;2024-01-06T03:49:39;5.50;73.80
78886;DHT22;68269;52.514;5.722;2024-01-06T03:52:08;5.50;73.80
78886;DHT22;68269;52.514;5.722;2024-01-06T03:54:38;5.50;73.90
78886;DHT22;68269;52.514;5.722;2024-01-06T03:57:07;5.50;73.90
78886;DHT22;68269;52.514;5.722;2024-01-06T03:59:36;5.50;73.80
78886;DHT22;68269;52.514;5.722;2024-01-06T04:02:08;5.50;73.80
78886;DHT22;68269;52.514;5.722;2024-01-06T04:04:37;5.50;73.80
78886;DHT22;68269;52.514;5.722;2024-01-06T04:07:07;5.50;73.70
78886;DHT22;68269;52.514;5.722;2024-01-06T04:09:36;5.40;73.80
78886;DHT22;68269;52.514;5.722;2024-01-06T04:12:06;5.40;73.70
78886;DHT22;68269;52.514;5.722;2024-01-06T04:14:35;5.40;73.70
78886;DHT22;68269;52.514;5.722;2024-01-06T04:17:04;5.40;73.70
78886;DHT22;68269;52.514;5.722;2024-01-06T04:19:36;5.40;73.60
78886;DHT22;68269;52.514;5.722;2024-01-06T04:22:05;5.40;73.60
78886;DHT22;68269;52.514;5.722;2024-01-06T04:24:35;5.40;73.60
78886;DHT22;68269;52.514;5.722;2024-01-06T04:27:06;5.40;73.50
78886;DHT22;68269;52.514;5.722;2024-01-06T04:29:36;5.40;73.50
78886;DHT22;68269;52.514;5.722;2024-01-06T04:32:06;5.40;73.50
78886;DHT22;68269;52.514;5.722;2024-01-06T04:34:37;5.30;73.50
78886;DHT22;68269;52.514;5.722;2024-01-06T04:37:08;5.30;73.50
78886;DHT22;68269;52.514;5.722;2024-01-06T04:39:37;5.30;73.40
78886;DHT22;68269;52.514;5.722;2024-01-06T04:42:06;5.30;73.40
78886;DHT22;68269;52.514;5.722;2024-01-06T04:44:35;5.30;73.50
78886;DHT22;68269;52.514;5.722;2024-01-06T04:47:05;5.30;73.50
78886;DHT22;68269;52.514;5.722;2024-01-06T04:49:37;5.30;73.50
78886;DHT22;68269;52.514;5.722;2024-01-06T04:52:06;5.20;73.50
78886;DHT22;68269;52.514;5.722;2024-01-06T04:54:35;5.20;73.50
78886;DHT22;68269;52.514;5.722;2024-01-06T04:57:04;5.10;73.50
78886;DHT22;68269;52.514;5.722;2024-01-06T04:59:34;5.10;73.50
78886;DHT22;68269;52.514;5.722;2024-01-06T05:02:03;5.10;73.50
78886;DHT22;68269;52.514;5.722;2024-01-06T05:04:33;5.10;73.50
78886;DHT22;68269;52.514;5.722;2024-01-06T05:07:04;5.10;73.40
78886;DHT22;68269;52.514;5.722;2024-01-06T05:09:34;5.20;73.30
78886;DHT22;68269;52.514;5.722;2024-01-06T05:12:04;5.20;73.30
78886;DHT22;68269;52.514;5.722;2024-01-06T05:14:33;5.20;73.30
78886;DHT22;68269;52.514;5.722;2024-01-06T05:17:03;5.10;73.30
78886;DHT22;68269;52.514;5.722;2024-01-06T05:19:32;5.10;73.30
78886;DHT22;68269;52.514;5.722;2024-01-06T05:22:04;5.10;73.30
78886;DHT22;68269;52.514;5.722;2024-01-06T05:24:33;5.10;73.30
78886;DHT22;68269;52.514;5.722;2024-01-06T05:27:03;5.10;73.30
78886;DHT22;68269;52.514;5.722;2024-01-06T05:29:33;5.10;73.30
78886;DHT22;68269;52.514;5.722;2024-01-06T05:32:02;5.10;73.20
78886;DHT22;68269;52.514;5.722;2024-01-06T05:34:32;5.10;73.30
78886;DHT22;68269;52.514;5.722;2024-01-06T05:37:03;5.10;73.20
78886;DHT22;68269;52.514;5.722;2024-01-06T05:39:33;5.10;73.20
78886;DHT22;68269;52.514;5.722;2024-01-06T05:42:02;5.10;73.10
78886;DHT22;68269;52.514;5.722;2024-01-06T05:44:31;5.10;73.20
78886;DHT22;68269;52.514;5.722;2024-01-06T05:47:04;5.10;73.10
78886;DHT22;68269;52.514;5.722;2024-01-06T05:49:34;5.10;73.10
78886;DHT22;68269;52.514;5.722;2024-01-06T05:52:06;5.10;73.00
78886;DHT22;68269;52.514;5.722;2024-01-06T05:54:35;5.10;73.00
78886;DHT22;68269;52.514;5.722;2024-01-06T05:57:05;5.10;73.10
78886;DHT22;68269;52.514;5.722;2024-01-06T05:59:34;5.10;73.10
78886;DHT22;68269;52.514;5.722;2024-01-06T06:02:03;5.20;73.10
78886;DHT22;68269;52.514;5.722;2024-01-06T06:04:33;5.10;73.00
78886;DHT22;68269;52.514;5.722;2024-01-06T06:07:02;5.10;73.10
78886;DHT22;68269;52.514;5.722;2024-01-06T06:09:34;5.10;73.10
78886;DHT22;68269;52.514;5.722;2024-01-06T06:12:06;5.10;73.10
78886;DHT22;68269;52.514;5.722;2024-01-06T06:14:35;5.10;73.00
78886;DHT22;68269;52.514;5.722;2024-01-06T06:17:05;5.10;73.10
78886;DHT22;68269;52.514;5.722;2024-01-06T06:19:35;5.10;73.10
78886;DHT22;68269;52.514;5.722;2024-01-06T06:22:04;5.10;73.10
78886;DHT22;68269;52.514;5.722;2024-01-06T06:24:36;5.10;73.10
78886;DHT22;68269;52.514;5.722;2024-01-06T06:27:05;5.10;73.00
78886;DHT22;68269;52.514;5.722;2024-01-06T06:29:34;5.10;73.00
78886;DHT22;68269;52.514;5.722;2024-01-06T06:32:04;5.10;73.00
78886;DHT22;68269;52.514;5.722;2024-01-06T06:34:34;5.10;73.00
78886;DHT22;68269;52.514;5.722;2024-01-06T06:37:03;5.00;73.00
78886;DHT22;68269;52.514;5.722;2024-01-06T06:39:35;5.00;73.00
78886;DHT22;68269;52.514;5.722;2024-01-06T06:42:05;5.00;73.00
78886;DHT22;68269;52.514;5.722;2024-01-06T06:44:34;5.00;73.00
78886;DHT22;68269;52.514;5.722;2024-01-06T06:47:04;5.00;73.00
78886;DHT22;68269;52.514;5.722;2024-01-06T06:49:33;5.00;73.00
78886;DHT22;68269;52.514;5.722;2024-01-06T06:52:03;5.00;73.00
78886;DHT22;68269;52.514;5.722;2024-01-06T06:54:36;5.00;73.10
78886;DHT22;68269;52.514;5.722;2024-01-06T06:57:05;5.00;73.00
78886;DHT22;68269;52.514;5.722;2024-01-06T06:59:34;5.00;73.00
78886;DHT22;68269;52.514;5.722;2024-01-06T07:02:04;5.10;72.90
78886;DHT22;68269;52.514;5.722;2024-01-06T07:04:33;5.10;72.90
78886;DHT22;68269;52.514;5.722;2024-01-06T07:07:03;5.10;72.90
78886;DHT22;68269;52.514;5.722;2024-01-06T07:09:32;5.10;72.90
78886;DHT22;68269;52.514;5.722;2024-01-06T07:12:04;5.00;72.90
78886;DHT22;68269;52.514;5.722;2024-01-06T07:14:34;5.00;72.90
78886;DHT22;68269;52.514;5.722;2024-01-06T07:17:03;5.00;72.90
78886;DHT22;68269;52.514;5.722;2024-01-06T07:19:32;5.00;73.00
78886;DHT22;68269;52.514;5.722;2024-01-06T07:22:02;5.00;72.90
78886;DHT22;68269;52.514;5.722;2024-01-06T07:24:31;5.00;72.90
78886;DHT22;68269;52.514;5.722;2024-01-06T07:27:05;5.00;72.90
78886;DHT22;68269;52.514;5.722;2024-01-06T07:29:34;5.00;72.90
78886;DHT22;68269;52.514;5.722;2024-01-06T07:32:04;5.00;72.90
78886;DHT22;68269;52.514;5.722;2024-01-06T07:34:33;5.00;72.90
78886;DHT22;68269;52.514;5.722;2024-01-06T07:37:03;5.00;72.90
78886;DHT22;68269;52.514;5.722;2024-01-06T07:39:32;5.10;72.80
78886;DHT22;68269;52.514;5.722;2024-01-06T07:42:04;5.10;72.80
78886;DHT22;68269;52.514;5.722;2024-01-06T07:44:33;5.10;72.80
78886;DHT22;68269;52.514;5.722;2024-01-06T07:47:03;5.10;72.80
78886;DHT22;68269;52.514;5.722;2024-01-06T07:49:33;5.00;72.80
78886;DHT22;68269;52.514;5.722;2024-01-06T07:52:03;5.00;72.80
78886;DHT22;68269;52.514;5.722;2024-01-06T07:54:32;5.00;72.80
78886;DHT22;68269;52.514;5.722;2024-01-06T07:57:04;5.00;72.80
78886;DHT22;68269;52.514;5.722;2024-01-06T07:59:33;5.00;72.80
78886;DHT22;68269;52.514;5.722;2024-01-06T08:02:03;5.00;72.70
78886;DHT22;68269;52.514;5.722;2024-01-06T08:04:33;5.00;72.70
78886;DHT22;68269;52.514;5.722;2024-01-06T08:07:02;5.00;72.70
78886;DHT22;68269;52.514;5.722;2024-01-06T08:09:32;5.00;72.70
78886;DHT22;68269;52.514;5.722;2024-01-06T08:12:04;5.00;72.60
78886;DHT22;68269;52.514;5.722;2024-01-06T08:14:34;5.10;72.60
78886;DHT22;68269;52.514;5.722;2024-01-06T08:17:03;5.10;72.60
78886;DHT22;68269;52.514;5.722;2024-01-06T08:19:32;5.00;72.60
78886;DHT22;68269;52.514;5.722;2024-01-06T08:22:02;5.00;72.60
78886;DHT22;68269;52.514;5.722;2024-01-06T08:24:32;5.10;72.60
78886;DHT22;68269;52.514;5.722;2024-01-06T08:27:04;5.00;72.60
78886;DHT22;68269;52.514;5.722;2024-01-06T08:29:33;5.00;72.60
78886;DHT22;68269;52.514;5.722;2024-01-06T08:32:03;5.00;72.60
78886;DHT22;68269;52.514;5.722;2024-01-06T08:34:32;5.00;72.60
78886;DHT22;68269;52.514;5.722;2024-01-06T08:37:02;5.00;72.60
78886;DHT22;68269;52.514;5.722;2024-01-06T08:39:31;5.00;72.60
78886;DHT22;68269;52.514;5.722;2024-01-06T08:42:00;5.00;72.60
78886;DHT22;68269;52.514;5.722;2024-01-06T08:44:32;5.10;72.60
78886;DHT22;68269;52.514;5.722;2024-01-06T08:47:01;5.10;72.50
78886;DHT22;68269;52.514;5.722;2024-01-06T08:49:30;5.10;72.50
78886;DHT22;68269;52.514;5.722;2024-01-06T08:52:00;5.10;72.50
78886;DHT22;68269;52.514;5.722;2024-01-06T08:54:29;5.10;72.50
78886;DHT22;68269;52.514;5.722;2024-01-06T08:56:58;5.10;72.40
78886;DHT22;68269;52.514;5.722;2024-01-06T08:59:27;5.20;72.40
78886;DHT22;68269;52.514;5.722;2024-01-06T09:01:59;5.20;72.30
78886;DHT22;68269;52.514;5.722;2024-01-06T09:04:29;5.20;72.30
78886;DHT22;68269;52.514;5.722;2024-01-06T09:06:58;5.20;72.30
78886;DHT22;68269;52.514;5.722;2024-01-06T09:09:27;5.20;72.30
78886;DHT22;68269;52.514;5.722;2024-01-06T09:11:57;5.30;72.30
78886;DHT22;68269;52.514;5.722;2024-01-06T09:14:26;5.30;72.30
78886;DHT22;68269;52.514;5.722;2024-01-06T09:16:59;5.30;72.20
78886;DHT22;68269;52.514;5.722;2024-01-06T09:19:28;5.30;72.30
78886;DHT22;68269;52.514;5.722;2024-01-06T09:21:57;5.30;72.20
78886;DHT22;68269;52.514;5.722;2024-01-06T09:24:26;5.30;72.20
78886;DHT22;68269;52.514;5.722;2024-01-06T09:26:56;5.30;72.20
78886;DHT22;68269;52.514;5.722;2024-01-06T09:29:25;5.30;72.20
78886;DHT22;68269;52.514;5.722;2024-01-06T09:31:54;5.30;72.20
78886;DHT22;68269;52.514;5.722;2024-01-06T09:34:26;5.40;72.10
78886;DHT22;68269;52.514;5.722;2024-01-06T09:36:55;5.30;72.10
78886;DHT22;68269;52.514;5.722;2024-01-06T09:39:24;5.30;72.20
78886;DHT22;68269;52.514;5.722;2024-01-06T09:41:54;5.40;72.10
78886;DHT22;68269;52.514;5.722;2024-01-06T09:44:23;5.40;72.20
78886;DHT22;68269;52.514;5.722;2024-01-06T09:46:53;5.40;72.10
78886;DHT22;68269;52.514;5.722;2024-01-06T09:49:28;5.50;72.10
78886;DHT22;68269;52.514;5.722;2024-01-06T09:52:01;5.50;72.10
78886;DHT22;68269;52.514;5.722;2024-01-06T09:54:31;5.50;72.10
78886;DHT22;68269;52.514;5.722;2024-01-06T09:57:04;5.50;72.00
78886;DHT22;68269;52.514;5.722;2024-01-06T09:59:34;5.50;72.10
78886;DHT22;68269;52.514;5.722;2024-01-06T10:02:04;5.50;72.00
78886;DHT22;68269;52.514;5.722;2024-01-06T10:04:36;5.50;71.90
78886;DHT22;68269;52.514;5.722;2024-01-06T10:07:05;5.50;71.90
78886;DHT22;68269;52.514;5.722;2024-01-06T10:09:38;5.50;72.00
78886;DHT22;68269;52.514;5.722;2024-01-06T10:12:09;5.50;72.00
78886;DHT22;68269;52.514;5.722;2024-01-06T10:14:38;5.50;72.00
78886;DHT22;68269;52.514;5.722;2024-01-06T10:17:07;5.50;72.00
78886;DHT22;68269;52.514;5.722;2024-01-06T10:19:40;5.50;71.90
78886;DHT22;68269;52.514;5.722;2024-01-06T10:22:09;5.50;71.90
78886;DHT22;68269;52.514;5.722;2024-01-06T10:24:39;5.50;71.90
78886;DHT22;68269;52.514;5.722;2024-01-06T10:27:08;5.50;71.90
78886;DHT22;68269;52.514;5.722;2024-01-06T10:29:38;5.50;71.90
78886;DHT22;68269;52.514;5.722;2024-01-06T10:32:08;5.50;71.90
78886;DHT22;68269;52.514;5.722;2024-01-06T10:34:40;5.50;72.00
78886;DHT22;68269;52.514;5.722;2024-01-06T10:37:11;5.50;72.00
78886;DHT22;68269;52.514;5.722;2024-01-06T10:39:40;5.50;72.00
78886;DHT22;68269;52.514;5.722;2024-01-06T10:42:11;5.50;72.00
78886;DHT22;68269;52.514;5.722;2024-01-06T10:44:42;5.50;72.00
78886;DHT22;68269;52.514;5.722;2024-01-06T10:47:12;5.50;72.00
78886;DHT22;68269;52.514;5.722;2024-01-06T10:49:46;5.50;71.90
78886;DHT22;68269;52.514;5.722;2024-01-06T10:52:16;5.60;71.80
78886;DHT22;68269;52.514;5.722;2024-01-06T10:54:46;5.50;71.80
78886;DHT22;68269;52.514;5.722;2024-01-06T10:57:18;5.60;71.80
78886;DHT22;68269;52.514;5.722;2024-01-06T10:59:51;5.60;71.80
78886;DHT22;68269;52.514;5.722;2024-01-06T11:02:20;5.60;71.80
78886;DHT22;68269;52.514;5.722;2024-01-06T11:04:54;5.60;71.80
78886;DHT22;68269;52.514;5.722;2024-01-06T11:07:25;5.60;71.80
78886;DHT22;68269;52.514;5.722;2024-01-06T11:09:57;5.50;71.80
78886;DHT22;68269;52.514;5.722;2024-01-06T11:12:28;5.50;71.80
78886;DHT22;68269;52.514;5.722;2024-01-06T11:14:58;5.50;71.90
78886;DHT22;68269;52.514;5.722;2024-01-06T11:17:49;5.50;71.90
78886;DHT22;68269;52.514;5.722;2024-01-06T11:20:22;5.50;71.90
78886;DHT22;68269;52.514;5.722;2024-01-06T11:22:52;5.50;71.90
78886;DHT22;68269;52.514;5.722;2024-01-06T11:25:22;5.50;71.90
78886;DHT22;68269;52.514;5.722;2024-01-06T11:27:54;5.50;71.90
78886;DHT22;68269;52.514;5.722;2024-01-06T11:30:25;5.50;71.80
78886;DHT22;68269;52.514;5.722;2024-01-06T11:32:56;5.50;71.80
78886;DHT22;68269;52.514;5.722;2024-01-06T11:35:30;5.50;71.80
78886;DHT22;68269;52.514;5.722;2024-01-06T11:38:01;5.50;71.80
78886;DHT22;68269;52.514;5.722;2024-01-06T11:40:35;5.50;71.90
78886;DHT22;68269;52.514;5.722;2024-01-06T11:43:06;5.50;71.90
78886;DHT22;68269;52.514;5.722;2024-01-06T11:45:37;5.50;71.90
78886;DHT22;68269;52.514;5.722;2024-01-06T11:48:10;5.50;71.90
78886;DHT22;68269;52.514;5.722;2024-01-06T11:50:42;5.50;71.90
78886;DHT22;68269;52.514;5.722;2024-01-06T11:53:11;5.50;71.90
78886;DHT22;68269;52.514;5.722;2024-01-06T11:55:41;5.50;71.90
78886;DHT22;68269;52.514;5.722;2024-01-06T11:58:10;5.50;71.90
78886;DHT22;68269;52.514;5.722;2024-01-06T12:00:40;5.50;71.80
78886;DHT22;68269;52.514;5.722;2024-01-06T12:03:10;5.50;71.80
78886;DHT22;68269;52.514;5.722;2024-01-06T12:05:43;5.50;71.80
78886;DHT22;68269;52.514;5.722;2024-01-06T12:08:13;5.50;71.80
78886;DHT22;68269;52.514;5.722;2024-01-06T12:10:42;5.50;71.80
78886;DHT22;68269;52.514;5.722;2024-01-06T12:13:12;5.50;71.80
78886;DHT22;68269;52.514;5.722;2024-01-06T12:15:41;5.50;71.70
78886;DHT22;68269;52.514;5.722;2024-01-06T12:18:10;5.50;71.70
78886;DHT22;68269;52.514;5.722;2024-01-06T12:20:43;5.50;71.80
78886;DHT22;68269;52.514;5.722;2024-01-06T12:23:23;5.50;71.70
78886;DHT22;68269;52.514;5.722;2024-01-06T12:25:54;5.50;71.70
78886;DHT22;68269;52.514;5.722;2024-01-06T12:28:23;5.50;71.80
78886;DHT22;68269;52.514;5.722;2024-01-06T12:30:53;5.50;71.70
78886;DHT22;68269;52.514;5.722;2024-01-06T12:33:22;5.50;71.70
78886;DHT22;68269;52.514;5.722;2024-01-06T12:35:54;5.40;71.80
78886;DHT22;68269;52.514;5.722;2024-01-06T12:38:24;5.50;71.80
78886;DHT22;68269;52.514;5.722;2024-01-06T12:40:55;5.50;71.70
78886;DHT22;68269;52.514;5.722;2024-01-06T12:43:25;5.50;71.70
78886;DHT22;68269;52.514;5.722;2024-01-06T12:45:54;5.50;71.70
78886;DHT22;68269;52.514;5.722;2024-01-06T12:48:24;5.50;71.70
78886;DHT22;68269;52.514;5.722;2024-01-06T12:50:56;5.50;71.60
78886;DHT22;68269;52.514;5.722;2024-01-06T12:53:25;5.50;71.60
78886;DHT22;68269;52.514;5.722;2024-01-06T12:55:54;5.50;71.70
78886;DHT22;68269;52.514;5.722;2024-01-06T12:58:23;5.50;71.70
78886;DHT22;68269;52.514;5.722;2024-01-06T13:00:53;5.50;71.70
78886;DHT22;68269;52.514;5.722;2024-01-06T13:03:23;5.50;71.70
78886;DHT22;68269;52.514;5.722;2024-01-06T13:05:55;5.50;71.60
78886;DHT22;68269;52.514;5.722;2024-01-06T13:08:24;5.50;71.60
78886;DHT22;68269;52.514;5.722;2024-01-06T13:10:54;5.50;71.60
78886;DHT22;68269;52.514;5.722;2024-01-06T13:13:23;5.40;71.60
78886;DHT22;68269;52.514;5.722;2024-01-06T13:15:52;5.40;71.70
78886;DHT22;68269;52.514;5.722;2024-01-06T13:18:22;5.40;71.70
78886;DHT22;68269;52.514;5.722;2024-01-06T13:20:51;5.40;71.70
78886;DHT22;68269;52.514;5.722;2024-01-06T13:23:23;5.40;71.70
78886;DHT22;68269;52.514;5.722;2024-01-06T13:25:52;5.40;71.60
78886;DHT22;68269;52.514;5.722;2024-01-06T13:28:23;5.40;71.60
78886;DHT22;68269;52.514;5.722;2024-01-06T13:30:53;5.40;71.60
78886;DHT22;68269;52.514;5.722;2024-01-06T13:33:22;5.40;71.60
78886;DHT22;68269;52.514;5.722;2024-01-06T13:35:51;5.40;71.70
78886;DHT22;68269;52.514;5.722;2024-01-06T13:38:23;5.40;71.60
78886;DHT22;68269;52.514;5.722;2024-01-06T13:40:52;5.40;71.60
78886;DHT22;68269;52.514;5.722;2024-01-06T13:43:22;5.40;71.60
78886;DHT22;68269;52.514;5.722;2024-01-06T13:45:51;5.40;71.60
78886;DHT22;68269;52.514;5.722;2024-01-06T13:48:21;5.40;71.50
78886;DHT22;68269;52.514;5.722;2024-01-06T13:50:50;5.30;71.60
78886;DHT22;68269;52.514;5.722;2024-01-06T13:53:23;5.30;71.60
78886;DHT22;68269;52.514;5.722;2024-01-06T13:55:52;5.30;71.60
78886;DHT22;68269;52.514;5.722;2024-01-06T13:58:21;5.30;71.60
78886;DHT22;68269;52.514;5.722;2024-01-06T14:00:51;5.30;71.60
78886;DHT22;68269;52.514;5.722;2024-01-06T14:03:20;5.30;71.50
78886;DHT22;68269;52.514;5.722;2024-01-06T14:05:49;5.30;71.50
78886;DHT22;68269;52.514;5.722;2024-01-06T14:08:22;5.30;71.50
78886;DHT22;68269;52.514;5.722;2024-01-06T14:10:52;5.30;71.50
78886;DHT22;68269;52.514;5.722;2024-01-06T14:13:21;5.30;71.50
78886;DHT22;68269;52.514;5.722;2024-01-06T14:15:50;5.30;71.50
78886;DHT22;68269;52.514;5.722;2024-01-06T14:18:22;5.30;71.40
78886;DHT22;68269;52.514;5.722;2024-01-06T14:20:53;5.30;71.50
78886;DHT22;68269;52.514;5.722;2024-01-06T14:23:26;5.30;71.40
78886;DHT22;68269;52.514;5.722;2024-01-06T14:25:57;5.30;71.40
78886;DHT22;68269;52.514;5.722;2024-01-06T14:28:26;5.30;71.40
78886;DHT22;68269;52.514;5.722;2024-01-06T14:30:56;5.60;71.10
78886;DHT22;68269;52.514;5.722;2024-01-06T14:33:25;5.70;70.60
78886;DHT22;68269;52.514;5.722;2024-01-06T14:35:54;5.80;70.40
78886;DHT22;68269;52.514;5.722;2024-01-06T14:38:27;5.90;70.20
78886;DHT22;68269;52.514;5.722;2024-01-06T14:40:56;5.90;70.10
78886;DHT22;68269;52.514;5.722;2024-01-06T14:43:25;5.90;70.20
78886;DHT22;68269;52.514;5.722;2024-01-06T14:45:54;5.90;70.10
78886;DHT22;68269;52.514;5.722;2024-01-06T14:48:24;5.90;70.10
78886;DHT22;68269;52.514;5.722;2024-01-06T14:50:53;5.90;70.20
78886;DHT22;68269;52.514;5.722;2024-01-06T14:53:22;5.80;70.30
78886;DHT22;68269;52.514;5.722;2024-01-06T14:55:54;5.70;70.40
78886;DHT22;68269;52.514;5.722;2024-01-06T14:58:23;5.60;70.50
78886;DHT22;68269;52.514;5.722;2024-01-06T15:00:53;5.60;70.70
78886;DHT22;68269;52.514;5.722;2024-01-06T15:03:22;5.50;70.80
78886;DHT22;68269;52.514;5.722;2024-01-06T15:05:52;5.50;70.90
78886;DHT22;68269;52.514;5.722;2024-01-06T15:08:21;5.50;70.90
78886;DHT22;68269;52.514;5.722;2024-01-06T15:10:55;5.70;70.70
78886;DHT22;68269;52.514;5.722;2024-01-06T15:13:25;5.80;70.40
78886;DHT22;68269;52.514;5.722;2024-01-06T15:15:54;5.70;70.30
78886;DHT22;68269;52.514;5.722;2024-01-06T15:18:23;5.80;70.40
78886;DHT22;68269;52.514;5.722;2024-01-06T15:20:53;5.80;70.20
78886;DHT22;68269;52.514;5.722;2024-01-06T15:23:22;5.90;70.20
78886;DHT22;68269;52.514;5.722;2024-01-06T15:25:51;5.90;70.10
78886;DHT22;68269;52.514;5.722;2024-01-06T15:28:23;6.00;69.90
78886;DHT22;68269;52.514;5.722;2024-01-06T15:30:52;5.90;70.00
78886;DHT22;68269;52.514;5.722;2024-01-06T15:33:23;5.90;70.00
78886;DHT22;68269;52.514;5.722;2024-01-06T15:35:53;6.00;69.70
78886;DHT22;68269;52.514;5.722;2024-01-06T15:38:22;6.00;69.70
78886;DHT22;68269;52.514;5.722;2024-01-06T15:40:53;6.00;69.60
78886;DHT22;68269;52.514;5.722;2024-01-06T15:43:25;5.90;69.90
78886;DHT22;68269;52.514;5.722;2024-01-06T15:45:54;6.20;69.30
78886;DHT22;68269;52.514;5.722;2024-01-06T15:48:23;6.20;69.00
78886;DHT22;68269;52.514;5.722;2024-01-06T15:50:53;6.20;69.20
78886;DHT22;68269;52.514;5.722;2024-01-06T15:53:22;6.20;69.20
78886;DHT22;68269;52.514;5.722;2024-01-06T15:55:51;6.10;69.10
78886;DHT22;68269;52.514;5.722;2024-01-06T15:58:21;5.90;69.30
78886;DHT22;68269;52.514;5.722;2024-01-06T16:00:52;5.80;69.70
78886;DHT22;68269;52.514;5.722;2024-01-06T16:03:22;5.70;69.90